createdAt,value
2022-10-05T00:00:00.688Z,100701.22
2022-10-05T00:04:15.423Z,100702.03
2022-10-05T00:08:20.390Z,100701.06
2022-10-05T00:12:25.230Z,100708.00
2022-10-05T00:16:29.660Z,100713.19
2022-10-05T00:20:34.711Z,100701.69
2022-10-05T00:24:38.028Z,100688.44
2022-10-05T00:28:42.435Z,100692.75
2022-10-05T00:32:46.661Z,100695.34
2022-10-05T00:36:50.992Z,100697.91
2022-10-05T00:41:05.437Z,100693.47
2022-10-05T00:45:14.250Z,100690.78
2022-10-05T00:49:38.318Z,100700.41
2022-10-05T00:53:47.822Z,100700.38
2022-10-05T00:58:04.228Z,100702.88
2022-10-05T01:02:13.581Z,100688.72
2022-10-05T01:06:27.068Z,100693.91
2022-10-05T01:10:38.552Z,100698.19
2022-10-05T01:14:52.231Z,100700.78
2022-10-05T01:19:02.003Z,100695.44
2022-10-05T01:23:30.317Z,100696.13
2022-10-05T01:27:46.431Z,100705.59
2022-10-05T01:31:58.391Z,100694.09
2022-10-05T01:36:09.692Z,100678.13
2022-10-05T01:40:23.835Z,100671.06
2022-10-05T01:44:32.306Z,100663.16
2022-10-05T01:48:48.730Z,100670.09
2022-10-05T01:53:01.874Z,100669.19
2022-10-05T01:57:12.858Z,100652.44
2022-10-05T02:01:26.529Z,100647.06
2022-10-05T02:05:36.435Z,100645.22
2022-10-05T02:09:46.215Z,100639.91
2022-10-05T02:13:54.512Z,100638.13
2022-10-05T02:18:03.143Z,100642.44
2022-10-05T02:22:11.471Z,100644.09
2022-10-05T02:26:18.637Z,100643.94
2022-10-05T02:30:22.012Z,100638.63
2022-10-05T02:34:30.535Z,100642.88
2022-10-05T02:38:54.553Z,100640.13
2022-10-05T02:43:04.606Z,100635.66
2022-10-05T02:47:15.863Z,100635.59
2022-10-05T02:51:24.875Z,100632.03
2022-10-05T02:55:37.360Z,100627.59
2022-10-05T02:59:45.805Z,100618.75
2022-10-05T03:04:01.514Z,100611.66
2022-10-05T03:08:10.582Z,100616.97
2022-10-05T03:12:30.083Z,100610.84
2022-10-05T03:16:41.861Z,100612.59
2022-10-05T03:20:52.482Z,100613.38
2022-10-05T03:25:17.984Z,100614.22
2022-10-05T03:29:30.479Z,100608.88
2022-10-05T03:33:43.420Z,100597.44
2022-10-05T03:37:54.479Z,100594.81
2022-10-05T03:42:09.492Z,100593.84
2022-10-05T03:46:17.786Z,100602.53
2022-10-05T03:50:32.673Z,100610.44
2022-10-05T03:54:40.882Z,100605.16
2022-10-05T03:58:52.890Z,100593.75
2022-10-05T04:03:03.136Z,100585.84
2022-10-05T04:07:12.624Z,100584.06
2022-10-05T04:11:21.309Z,100591.94
2022-10-05T04:15:38.768Z,100583.16
2022-10-05T04:19:46.479Z,100595.44
2022-10-05T04:23:58.629Z,100599.81
2022-10-05T04:28:09.000Z,100594.50
2022-10-05T04:32:30.250Z,100597.91
2022-10-05T04:36:43.144Z,100594.38
2022-10-05T04:41:04.881Z,100604.81
2022-10-05T04:45:22.166Z,100618.78
2022-10-05T04:49:44.875Z,100605.59
2022-10-05T04:53:55.260Z,100611.69
2022-10-05T04:58:11.759Z,100604.69
2022-10-05T05:02:23.639Z,100606.34
2022-10-05T05:06:36.096Z,100617.81
2022-10-05T05:10:53.908Z,100620.44
2022-10-05T05:15:09.539Z,100629.06
2022-10-05T05:19:37.463Z,100635.19
2022-10-05T05:23:49.781Z,100631.66
2022-10-05T05:27:56.015Z,100643.81
2022-10-05T05:32:10.568Z,100640.34
2022-10-05T05:36:40.330Z,100649.06
2022-10-05T05:40:55.067Z,100657.09
2022-10-05T05:45:06.629Z,100658.84
2022-10-05T05:49:17.054Z,100657.94
2022-10-05T05:53:26.200Z,100657.97
2022-10-05T05:57:35.914Z,100661.56
2022-10-05T06:01:45.001Z,100667.81
2022-10-05T06:05:53.855Z,100666.09
2022-10-05T06:10:02.977Z,100670.53
2022-10-05T06:14:20.053Z,100675.00
2022-10-05T06:18:24.759Z,100664.56
2022-10-05T06:22:35.849Z,100678.78
2022-10-05T06:27:06.461Z,100688.59
2022-10-05T06:31:21.263Z,100686.94
2022-10-05T06:35:44.504Z,100693.22
2022-10-05T06:40:24.201Z,100687.28
2022-10-05T06:44:33.266Z,100684.06
2022-10-05T06:49:15.462Z,100672.97
2022-10-05T06:53:56.922Z,100676.72
2022-10-05T06:58:14.103Z,100673.47
2022-10-05T07:02:26.696Z,100675.47
2022-10-05T07:06:38.158Z,100692.47
2022-10-05T07:10:57.783Z,100680.50
2022-10-05T07:15:24.887Z,100679.06
2022-10-05T07:19:35.753Z,100687.22
2022-10-05T07:23:51.993Z,100691.91
2022-10-05T07:28:02.292Z,100677.28
2022-10-05T07:32:17.278Z,100673.13
2022-10-05T07:36:50.882Z,100681.38
2022-10-05T07:41:06.203Z,100692.19
2022-10-05T07:45:19.239Z,100702.94
2022-10-05T07:49:29.692Z,100696.09
2022-10-05T07:53:38.757Z,100700.63
2022-10-05T07:57:50.064Z,100691.97
2022-10-05T08:02:01.130Z,100687.75
2022-10-05T08:06:06.696Z,100694.94
2022-10-05T08:10:25.109Z,100680.91
2022-10-05T08:14:35.924Z,100676.59
2022-10-05T08:18:55.824Z,100672.22
2022-10-05T08:23:03.811Z,100675.84
2022-10-05T08:27:14.642Z,100686.53
2022-10-05T08:31:24.357Z,100672.53
2022-10-05T08:35:34.258Z,100669.13
2022-10-05T08:39:41.206Z,100672.75
2022-10-05T08:44:28.894Z,100670.22
2022-10-05T08:48:56.251Z,100654.47
2022-10-05T08:53:29.358Z,100647.50
2022-10-05T08:57:53.485Z,100638.75
2022-10-05T09:02:16.851Z,100637.03
2022-10-05T09:06:52.140Z,100634.47
2022-10-05T09:11:04.934Z,100631.84
2022-10-05T09:15:31.379Z,100620.38
2022-10-05T09:20:16.798Z,100615.09
2022-10-05T09:24:49.539Z,100612.41
2022-10-05T09:29:10.146Z,100630.94
2022-10-05T09:33:37.380Z,100628.25
2022-10-05T09:38:03.451Z,100630.88
2022-10-05T09:42:36.440Z,100629.09
2022-10-05T09:47:04.733Z,100632.59
2022-10-05T09:51:30.275Z,100631.63
2022-10-05T09:56:12.253Z,100618.25
2022-10-05T10:00:24.097Z,100622.56
2022-10-05T10:04:49.889Z,100628.66
2022-10-05T10:09:10.677Z,100626.81
2022-10-05T10:13:46.762Z,100619.66
2022-10-05T10:18:28.511Z,100604.59
2022-10-05T10:23:09.289Z,100605.47
2022-10-05T10:27:36.152Z,100607.19
2022-10-05T10:32:03.934Z,100616.03
2022-10-05T10:36:15.070Z,100611.56
2022-10-05T10:40:31.117Z,100608.75
2022-10-05T10:45:15.852Z,100599.72
2022-10-05T10:49:36.227Z,100597.78
2022-10-05T10:54:17.825Z,100594.88
2022-10-05T10:59:09.547Z,100581.34
2022-10-05T11:03:38.697Z,100574.88
2022-10-05T11:08:08.490Z,100577.28
2022-10-05T11:12:50.454Z,100568.16
2022-10-05T11:17:23.947Z,100563.53
2022-10-05T11:21:36.624Z,100555.41
2022-10-05T11:25:55.630Z,100554.38
2022-10-05T11:30:17.611Z,100561.31
2022-10-05T11:35:02.066Z,100555.81
2022-10-05T11:39:36.855Z,100544.09
2022-10-05T11:44:13.505Z,100535.06
2022-10-05T11:48:38.703Z,100531.31
2022-10-05T11:52:49.158Z,100530.22
2022-10-05T11:56:57.221Z,100526.47
2022-10-05T12:01:06.811Z,100531.66
2022-10-05T12:05:16.528Z,100527.94
2022-10-05T12:09:36.963Z,100526.97
2022-10-05T12:13:48.362Z,100520.75
2022-10-05T12:18:00.314Z,100513.56
2022-10-05T12:22:11.080Z,100503.75
2022-10-05T12:26:17.450Z,100510.75
2022-10-05T12:30:30.561Z,100517.00
2022-10-05T12:34:48.660Z,100508.97
2022-10-05T12:38:57.255Z,100503.63
2022-10-05T12:43:08.672Z,100504.50
2022-10-05T12:47:17.901Z,100503.44
2022-10-05T12:51:27.317Z,100501.59
2022-10-05T12:55:38.255Z,100498.84
2022-10-05T12:59:48.278Z,100497.88
2022-10-05T13:03:56.994Z,100496.91
2022-10-05T13:08:19.063Z,100496.88
2022-10-05T13:12:35.420Z,100483.41
2022-10-05T13:16:49.209Z,100485.16
2022-10-05T13:21:04.681Z,100493.22
2022-10-05T13:25:26.634Z,100494.09
2022-10-05T13:29:35.804Z,100482.47
2022-10-05T13:34:02.837Z,100485.09
2022-10-05T13:38:21.472Z,100490.34
2022-10-05T13:42:33.534Z,100491.28
2022-10-05T13:46:42.724Z,100485.00
2022-10-05T13:50:51.947Z,100483.22
2022-10-05T13:55:01.601Z,100489.41
2022-10-05T13:59:17.265Z,100485.00
2022-10-05T14:03:30.495Z,100477.13
2022-10-05T14:07:39.395Z,100470.97
2022-10-05T14:11:50.138Z,100472.78
2022-10-05T14:16:15.909Z,100468.31
2022-10-05T14:20:25.615Z,100464.75
2022-10-05T14:24:47.643Z,100470.97
2022-10-05T14:28:59.433Z,100466.56
2022-10-05T14:33:16.529Z,100467.53
2022-10-05T14:37:21.464Z,100470.31
2022-10-05T14:41:27.496Z,100465.00
2022-10-05T14:45:31.130Z,100457.94
2022-10-05T14:49:37.292Z,100457.03
2022-10-05T14:53:43.332Z,100453.53
2022-10-05T14:57:59.627Z,100450.03
2022-10-05T15:02:26.763Z,100451.84
2022-10-05T15:06:37.886Z,100449.25
2022-10-05T15:10:44.659Z,100447.59
2022-10-05T15:14:53.082Z,100439.72
2022-10-05T15:19:04.355Z,100437.06
2022-10-05T15:23:24.561Z,100441.66
2022-10-05T15:27:36.286Z,100446.16
2022-10-05T15:31:48.830Z,100439.16
2022-10-05T15:36:09.458Z,100441.97
2022-10-05T15:40:23.495Z,100439.38
2022-10-05T15:44:47.511Z,100437.75
2022-10-05T15:49:00.637Z,100433.34
2022-10-05T15:53:13.062Z,100441.41
2022-10-05T15:57:22.749Z,100431.72
2022-10-05T16:01:45.058Z,100431.78
2022-10-05T16:06:10.216Z,100432.75
2022-10-05T16:10:18.395Z,100429.34
2022-10-05T16:14:38.626Z,100428.59
2022-10-05T16:18:55.070Z,100435.81
2022-10-05T16:23:06.878Z,100439.50
2022-10-05T16:27:18.982Z,100451.13
2022-10-05T16:31:30.983Z,100444.94
2022-10-05T16:35:47.783Z,100449.47
2022-10-05T16:39:58.239Z,100451.34
2022-10-05T16:44:11.935Z,100454.16
2022-10-05T16:48:24.725Z,100456.09
2022-10-05T16:52:29.085Z,100467.69
2022-10-05T16:56:41.008Z,100468.69
2022-10-05T17:01:09.378Z,100468.72
2022-10-05T17:05:28.572Z,100474.09
2022-10-05T17:09:55.874Z,100479.50
2022-10-05T17:14:23.005Z,100476.91
2022-10-05T17:18:31.376Z,100484.06
2022-10-05T17:22:39.916Z,100485.78
2022-10-05T17:26:57.405Z,100490.19
2022-10-05T17:31:20.301Z,100487.56
2022-10-05T17:35:50.744Z,100492.91
2022-10-05T17:39:55.361Z,100490.25
2022-10-05T17:44:27.113Z,100486.78
2022-10-05T17:49:07.692Z,100488.56
2022-10-05T17:53:44.371Z,100492.06
2022-10-05T17:57:47.572Z,100492.97
2022-10-05T18:02:16.958Z,100493.13
2022-10-05T18:06:33.288Z,100490.53
2022-10-05T18:10:41.295Z,100491.56
2022-10-05T18:15:01.535Z,100494.38
2022-10-05T18:19:16.661Z,100492.63
2022-10-05T18:23:35.703Z,100496.22
2022-10-05T18:28:06.916Z,100498.16
2022-10-05T18:32:21.325Z,100493.81
2022-10-05T18:36:38.206Z,100493.00
2022-10-05T18:40:52.725Z,100495.75
2022-10-05T18:45:00.207Z,100493.19
2022-10-05T18:49:20.044Z,100495.88
2022-10-05T18:53:33.459Z,100495.91
2022-10-05T18:58:01.629Z,100495.09
2022-10-05T19:02:24.598Z,100498.69
2022-10-05T19:06:31.019Z,100502.25
2022-10-05T19:10:41.712Z,100489.03
2022-10-05T19:14:54.619Z,100498.84
2022-10-05T19:19:16.073Z,100498.00
2022-10-05T19:23:42.180Z,100504.22
2022-10-05T19:27:55.323Z,100506.03
2022-10-05T19:32:04.450Z,100514.06
2022-10-05T19:36:24.447Z,100509.66
2022-10-05T19:40:35.538Z,100523.88
2022-10-05T19:44:54.079Z,100522.13
2022-10-05T19:48:57.810Z,100534.56
2022-10-05T19:53:12.823Z,100531.03
2022-10-05T19:57:18.178Z,100536.38
2022-10-05T20:01:30.762Z,100546.13
2022-10-05T20:05:34.044Z,100549.72
2022-10-05T20:09:54.353Z,100546.22
2022-10-05T20:14:20.011Z,100556.00
2022-10-05T20:19:06.821Z,100546.31
2022-10-05T20:23:27.943Z,100559.63
2022-10-05T20:27:47.468Z,100562.31
2022-10-05T20:31:50.509Z,100571.22
2022-10-05T20:35:54.077Z,100575.69
2022-10-05T20:39:57.624Z,100575.75
2022-10-05T20:44:01.880Z,100573.97
2022-10-05T20:48:05.197Z,100580.22
2022-10-05T20:52:10.949Z,100582.88
2022-10-05T20:56:14.584Z,100586.47
2022-10-05T21:00:19.055Z,100589.16
2022-10-05T21:04:24.465Z,100590.06
2022-10-05T21:08:27.882Z,100596.28
2022-10-05T21:12:32.730Z,100594.53
2022-10-05T21:16:38.180Z,100601.63
2022-10-05T21:20:41.422Z,100606.06
2022-10-05T21:24:45.727Z,100593.69
2022-10-05T21:28:48.856Z,100604.31
2022-10-05T21:36:57.210Z,100593.72
2022-10-05T21:41:00.101Z,100604.34
2022-10-05T21:45:03.000Z,100601.69
2022-10-05T21:49:09.710Z,100598.16
2022-10-05T21:53:15.655Z,100606.13
2022-10-05T21:57:18.689Z,100603.50
2022-10-05T22:01:23.055Z,100605.28
2022-10-05T22:05:27.588Z,100598.19
2022-10-05T22:09:30.626Z,100597.38
2022-10-05T22:13:41.902Z,100600.88
2022-10-05T22:17:46.245Z,100604.44
2022-10-05T22:21:50.454Z,100600.91
2022-10-05T22:25:54.356Z,100601.81
2022-10-05T22:29:59.043Z,100602.69
2022-10-05T22:34:02.154Z,100600.94
2022-10-05T22:38:06.657Z,100606.22
2022-10-05T22:42:10.529Z,100603.59
2022-10-05T22:46:14.769Z,100612.44
2022-10-05T22:50:17.887Z,100612.44
2022-10-05T22:54:26.277Z,100613.28
2022-10-05T22:58:31.778Z,100620.34
2022-10-05T23:02:37.583Z,100613.31
2022-10-05T23:06:40.986Z,100617.72
2022-10-05T23:10:45.218Z,100620.38
2022-10-05T23:14:48.131Z,100626.53
2022-10-05T23:18:52.788Z,100629.19
2022-10-05T23:22:55.710Z,100628.28
2022-10-05T23:26:59.967Z,100630.03
2022-10-05T23:31:06.053Z,100632.66
2022-10-05T23:35:10.610Z,100626.47
2022-10-05T23:39:13.764Z,100627.38
2022-10-05T23:43:18.171Z,100633.53
2022-10-05T23:47:21.187Z,100630.88
2022-10-05T23:51:24.125Z,100629.97
2022-10-05T23:55:27.003Z,100636.16
2022-10-05T23:59:31.491Z,100634.38
